Estación municipal de Cànoves i Samalús (Vallès Oriental, P.N.del Montseny)

Consulta los datos en tiempo real de la estación municipal de Cànoves i Samalús





Hora UTC 06:50
Temperatura 27.1 ºC
Humedad 48.9 %
Presión 1020.9 hPa
Pluja 0.0 mm
Velocidad viento 3.7 km/h
Dirección viento N
Radiación solar 66.8 W/m²

Webcam

Datos diarios 2026-09-05



Hora UTC (invierno +1h; verano +2h)
Temperatura (ºC) Humedad (%) Presión (hPa) Velocidad viento (km/h) Precipitación (mm) Radiación solar (W/m²)
Hora UTC Aire Humedad Presión Vel. Dir. Vel. Max Dir. Intent. máx 5 min. Rad. Sol.
00:05 23.8 62.6 1019.7 2.7 WNW 2.7 WNW 0.0 0.1
00:10 23.7 62.3 1019.7 2.7 NNW 4.6 NNW 0.0 0.1
00:15 23.8 62.2 1019.7 2.2 NW 3.9 WNW 0.0 0.1
00:20 23.7 62.0 1019.6 3.8 NNW 5.3 NNW 0.0 0.1
00:25 23.6 61.9 1019.6 3.4 NW 5.3 WNW 0.0 0.1
00:30 23.6 61.6 1019.6 2.6 WNW 4.6 W 0.0 0.1
00:35 23.7 61.5 1019.7 2.7 NW 4.9 WNW 0.0 0.1
00:40 23.7 61.3 1019.7 1.5 WNW 3.5 WNW 0.0 0.1
00:45 23.6 61.2 1019.6 0.8 SSW 2.1 SSW 0.0 0.1
00:50 23.4 61.9 1019.6 0.0 NNE 0.0 S 0.0 0.1
00:55 23.2 62.5 1019.7 1.8 SSW 4.6 S 0.0 0.1
01:00 23.0 63.8 1019.7 1.6 S 3.2 SSW 0.0 0.1
01:05 22.9 64.3 1019.7 1.0 WNW 2.8 N 0.0 0.1
01:10 22.8 64.3 1019.6 0.7 WNW 2.5 NW 0.0 0.1
01:15 22.7 64.1 1019.6 0.0 W 1.1 W 0.0 0.1
01:20 22.5 65.0 1019.6 0.4 SE 3.2 SSE 0.0 0.1
01:25 22.3 66.9 1019.6 1.2 S 2.5 SW 0.0 0.1
01:30 22.0 67.0 1019.7 1.3 S 3.2 SSW 0.0 0.1
01:35 22.0 67.6 1019.6 0.8 SSE 2.1 SSE 0.0 0.1
01:40 21.9 67.7 1019.6 1.6 NW 6.0 ENE 0.0 0.1
01:45 22.0 66.9 1019.6 2.2 NW 4.9 NW 0.0 0.1
01:50 22.5 65.2 1019.6 1.6 WNW 3.5 WNW 0.0 0.1
01:55 22.7 64.4 1019.7 1.0 W 3.5 WSW 0.0 0.1
02:00 22.7 64.5 1019.7 0.9 NNE 4.9 NE 0.0 0.1
02:05 22.6 64.1 1019.7 2.1 NW 4.6 N 0.0 0.1
02:10 22.9 63.5 1019.7 3.2 NNW 5.6 NNW 0.0 0.1
02:15 22.9 63.3 1019.7 3.1 NNW 5.3 NNW 0.0 0.1
02:20 22.9 63.4 1019.7 4.1 NNW 6.0 N 0.0 0.1
02:25 23.0 63.0 1019.7 3.1 NNW 6.0 NNW 0.0 0.1
02:30 23.0 62.8 1019.7 2.9 NNW 4.6 NW 0.0 0.1
02:35 23.1 62.3 1019.7 2.4 NW 3.9 NW 0.0 0.1
02:40 23.2 61.7 1019.7 2.0 NNW 3.5 NW 0.0 0.1
02:45 23.2 61.6 1019.7 3.7 NW 7.1 NNW 0.0 0.1
02:50 23.3 61.0 1019.7 2.7 NW 5.3 N 0.0 0.1
02:55 23.3 60.7 1019.7 2.6 NW 7.4 WNW 0.0 0.1
03:00 23.3 60.6 1019.7 3.2 NW 6.4 NW 0.0 0.1
03:05 23.4 60.5 1019.7 1.7 NW 4.6 WNW 0.0 0.1
03:10 23.4 60.2 1019.7 2.3 NNW 6.0 NNW 0.0 0.1
03:15 23.5 59.8 1019.7 3.4 N 12.0 N 0.0 0.1
03:20 23.7 59.0 1019.7 4.1 N 10.9 NNE 0.0 0.1
03:25 23.9 58.8 1019.7 2.9 NW 5.6 NW 0.0 0.1
03:30 23.8 58.8 1019.7 1.6 NNW 4.9 NNW 0.0 0.1
03:35 23.8 59.2 1019.7 2.0 NW 5.3 N 0.0 0.1
03:40 23.8 59.6 1019.7 2.7 NW 9.2 N 0.0 0.1
03:45 23.8 59.6 1019.7 0.9 NW 3.2 NW 0.0 0.1
03:50 23.7 59.1 1019.8 1.4 N 3.5 NNE 0.0 0.1
03:55 23.7 58.9 1019.8 0.9 NNW 2.8 NE 0.0 0.1
04:00 23.8 58.9 1019.8 1.7 N 5.6 NNE 0.0 0.1
04:05 23.8 59.1 1019.8 2.6 NNW 6.7 NNE 0.0 0.1
04:10 23.8 59.0 1019.8 1.8 NNW 5.3 NNW 0.0 0.1
04:15 23.8 58.8 1019.8 2.9 NW 6.0 NNW 0.0 0.1
04:20 23.7 58.7 1019.8 0.6 NW 2.5 NW 0.0 0.1
04:25 23.6 59.0 1019.8 0.9 NW 2.5 NW 0.0 0.1
04:30 23.6 59.3 1019.8 1.1 NW 2.5 NW 0.0 0.1
04:35 23.4 59.3 1019.9 1.8 NW 4.9 NE 0.0 0.1
04:40 23.3 59.2 1019.9 2.9 NNW 7.1 N 0.0 0.1
04:45 23.4 58.4 1019.9 3.2 NW 6.7 NNW 0.0 0.1
04:50 23.6 58.1 1020.0 2.0 NNW 9.5 NW 0.0 0.1
04:55 23.6 58.0 1020.0 2.2 NNW 7.1 NE 0.0 0.1
05:00 23.9 56.6 1020.0 3.9 N 8.8 NW 0.0 0.3
05:05 24.1 55.7 1020.1 4.7 N 9.5 N 0.0 0.6
05:10 24.6 54.4 1020.1 5.4 N 11.3 N 0.0 1.3
05:15 24.5 54.2 1020.1 5.6 NNW 11.6 N 0.0 2.1
05:20 24.9 53.1 1020.2 7.2 NNW 17.6 NW 0.0 3.5
05:25 25.2 52.2 1020.2 4.7 N 11.3 NNW 0.0 5.5
05:30 25.1 52.8 1020.2 2.5 N 5.6 NNW 0.0 9.2
05:35 25.0 52.9 1020.2 5.4 NNW 14.5 0.0 14.0
05:40 25.2 52.0 1020.3 4.8 N 12.4 NNW 0.0 18.6
05:45 25.4 51.5 1020.3 4.8 N 10.6 N 0.0 23.6
05:50 25.4 51.6 1020.4 4.4 N 10.6 NNW 0.0 28.4
05:55 25.4 51.5 1020.4 5.4 N 10.9 NNE 0.0 33.2
06:00 25.6 51.0 1020.5 5.2 N 10.6 NNE 0.0 37.2
06:05 25.7 51.4 1020.5 4.2 N 9.2 NW 0.0 40.9
06:10 25.7 51.5 1020.5 4.4 N 9.2 NW 0.0 44.6
06:15 25.7 51.5 1020.5 4.6 N 9.5 NNW 0.0 47.9
06:20 25.9 51.3 1020.6 3.9 NNW 8.8 NNW 0.0 51.2
06:25 26.0 51.4 1020.6 3.4 N 7.1 NNW 0.0 54.1
06:30 26.1 51.5 1020.7 4.4 N 8.8 NNW 0.0 56.8
06:35 26.4 50.5 1020.8 4.7 N 8.8 NNE 0.0 62.5
06:40 26.7 49.9 1020.8 3.2 N 7.8 NNE 0.0 62.5
06:45 26.9 49.3 1020.8 4.3 N 8.5 NNW 0.0 64.8
06:50 27.1 48.9 1020.9 3.7 N 8.8 NNE 0.0 66.8
Máxima 27.1 67.7 1020.9 7.2 NNW 17.6 NW 0.0 66.8
Mínima 20 48.9 1019.6
Total 0.0